Fort Edward, NY

2:05 PM EST on November 26, 2014 (GMT -0500)
Schenectady County | Change Station
CLOSE
Current Station
Airport
Location: Schenectady,
Elevation: 377 ft
Nearby Weather Stations

Elev 377 ft 42.85 °N, 73.93 °W | Updated 10 minutes ago

Snow
Snow
32 °F
Feels Like 28 °F
N
5
Wind Variable Wind from NE

Today
High -- | Low -- °F
--% Chance of Precip.
Yesterday
High -- | Low -- °F
Precip. -- in
7:00 AM 4:22 PM
Waxing Crescent, 22% visible
Pressure 30.09 in
Visibility 0.2 miles
Clouds Overcast 700 ft
Windchill 28 °F
Dew Point 30 °F
Humidity 93%
Rainfall 0.00 in
Snow Depth Not available.
UV 0 out of 12
Pollen .10 out of 12
Air Quality Not available.
Flu Activity Not available.
METAR KSCH 261855Z 04004KT 1/4SM SN BR OVC007 00/M01 A3009

More Conditions Fewer Conditions

Pressure 30.09 in
Visibility 0.2 miles
Clouds Overcast 700 ft
Windchill 28 °F
Dew Point 30 °F
Humidity 93%
Rainfall 0.00 in
Snow Depth Not available.
UV 0 out of 12
Pollen .10 out of 12
Air Quality Not available.
Flu Activity Not available.
METAR KSCH 261855Z 04004KT 1/4SM SN BR OVC007 00/M01 A3009

More Conditions Fewer Conditions

10-Day Weather Forecast

Almanac

Astronomy

Nov. 26, 2014 Rise Set
Actual Time
Civil Twilight
Nautical Twilight
Astronomical Twilight
Moon
Length of Visible Light
Length of Day
Tomorrow will be .
, % of the Moon is Illuminated

Today's Extremes

State Highs State Lows

Community

WunderPhotos

Upload Photos

1,773,831 photos uploaded!

WunderBlogs® & News

Nearby

Air Quality

  Air Quality AQ Index Pollutant
Not available.

Snow Depth

Station Depth Elevation

Earthquake Activity

City Distance Mag. Time & Date
Minimum magnitude displayed is 2.5.

Coastal Water Temperatures

Place Temperature

Nearby Weather Stations